Time;durP1;ratioP1;P1;durP2;ratioP2;P2;SDS_P1;SDS_P2;PMS_P1;PMS_P2;Temp;Humidity;BMP_temperature;BMP_pressure;BME280_temperature;BME280_humidity;BME280_pressure;Samples;Min_cycle;Max_cycle;Signal;HPM_P1;HPM_P2
2021/06/25 00:02:04;;;;;;;1999.90;999.90;;;17.80;99.90;;;;;;5073781;28;20658;-90
2021/06/25 00:04:30;;;;;;;1999.90;999.90;;;17.70;99.90;;;;;;5073642;28;20531;-90
2021/06/25 00:12:10;;;;;;;1999.90;999.90;;;17.60;99.90;;;;;;5786806;22;21969;-88
2021/06/25 00:14:36;;;;;;;1999.90;999.90;;;17.70;99.90;;;;;;5074631;28;20992;-89
2021/06/25 00:17:08;;;;;;;1999.90;999.90;;;17.50;99.90;;;;;;5073613;28;20414;-89
2021/06/25 00:19:34;;;;;;;1999.90;999.90;;;17.40;99.90;;;;;;5073573;28;20424;-88
2021/06/25 00:22:00;;;;;;;1999.90;999.90;;;17.40;99.90;;;;;;5072272;28;20402;-89
2021/06/25 00:24:29;;;;;;;1999.90;999.90;;;17.30;99.90;;;;;;5073036;28;20414;-89
2021/06/25 00:26:55;;;;;;;1999.90;999.90;;;17.40;99.90;;;;;;5072517;28;20410;-89
2021/06/25 00:29:21;;;;;;;1999.90;999.90;;;17.30;99.90;;;;;;5073330;28;20575;-89
2021/06/25 00:31:48;;;;;;;1999.90;999.90;;;17.30;99.90;;;;;;5073768;28;20202;-88
2021/06/25 00:34:14;;;;;;;1999.90;999.90;;;17.30;99.90;;;;;;5074108;28;20401;-89
2021/06/25 00:36:43;;;;;;;1999.90;999.90;;;17.20;99.90;;;;;;5073471;28;20400;-89
2021/06/25 00:39:09;;;;;;;1999.90;999.90;;;17.20;99.90;;;;;;5073413;28;20937;-89
2021/06/25 00:41:35;;;;;;;1999.90;999.90;;;17.10;99.90;;;;;;5073286;28;20413;-89
2021/06/25 00:44:01;;;;;;;1999.90;999.90;;;17.00;99.90;;;;;;5055324;28;20256;-89
2021/06/25 00:46:30;;;;;;;1999.90;999.90;;;16.90;99.90;;;;;;5073302;28;20411;-89
2021/06/25 00:48:55;;;;;;;1999.90;999.90;;;16.90;99.90;;;;;;5073872;28;20196;-89
2021/06/25 00:51:21;;;;;;;1999.90;999.90;;;16.80;99.90;;;;;;5055226;28;20414;-89
2021/06/25 00:53:47;;;;;;;1999.90;999.90;;;16.80;99.90;;;;;;5055160;28;20174;-89
2021/06/25 00:56:13;;;;;;;1999.90;999.90;;;16.70;99.90;;;;;;5073162;28;20157;-88
2021/06/25 00:58:40;;;;;;;1999.90;999.90;;;16.60;99.90;;;;;;5073000;28;20164;-88
2021/06/25 01:01:06;;;;;;;1999.90;999.90;;;16.60;99.90;;;;;;5074666;28;20402;-89
2021/06/25 01:03:33;;;;;;;1999.90;999.90;;;16.40;99.90;;;;;;5077112;28;20417;-88
2021/06/25 01:06:00;;;;;;;1999.90;999.90;;;16.40;99.90;;;;;;5077500;28;20410;-89
2021/06/25 01:08:29;;;;;;;1999.90;999.90;;;16.50;99.90;;;;;;5059018;28;20418;-89
2021/06/25 01:10:55;;;;;;;1999.90;999.90;;;16.40;99.90;;;;;;5075777;28;20460;-88
2021/06/25 01:13:21;;;;;;;1999.90;999.90;;;16.40;99.90;;;;;;5077639;28;20430;-88
2021/06/25 01:15:47;;;;;;;1999.90;999.90;;;16.40;99.90;;;;;;5059235;28;20406;-88
2021/06/25 01:18:13;;;;;;;1999.90;999.90;;;16.50;99.90;;;;;;5077551;28;20757;-88
2021/06/25 01:20:38;;;;;;;1999.90;999.90;;;16.50;99.90;;;;;;5077331;28;20704;-88
2021/06/25 01:23:05;;;;;;;1999.90;999.90;;;16.50;99.90;;;;;;5077319;28;20163;-89
2021/06/25 01:25:40;;;;;;;1999.90;999.90;;;16.50;99.90;;;;;;5077106;28;20628;-88
2021/06/25 01:28:11;;;;;;;1999.90;999.90;;;16.60;99.90;;;;;;5058739;28;20907;-88
2021/06/25 01:30:41;;;;;;;1999.90;999.90;;;16.50;99.90;;;;;;5075384;28;20528;-88
2021/06/25 01:33:10;;;;;;;1999.90;999.90;;;16.40;99.90;;;;;;5076348;28;20777;-89
2021/06/25 01:35:36;;;;;;;1999.90;999.90;;;16.40;99.90;;;;;;5076686;28;20811;-88
2021/06/25 01:38:03;;;;;;;1999.90;999.90;;;16.30;99.90;;;;;;5076729;28;20394;-89
2021/06/25 01:40:29;;;;;;;1999.90;999.90;;;16.30;99.90;;;;;;5059368;28;20430;-89
2021/06/25 01:42:54;;;;;;;1999.90;999.90;;;16.30;99.90;;;;;;5058509;28;20468;-89
2021/06/25 01:45:23;;;;;;;1999.90;999.90;;;16.30;99.90;;;;;;5058811;28;20542;-88
2021/06/25 01:47:50;;;;;;;1999.90;999.90;;;16.30;99.90;;;;;;5058766;28;20194;-89
2021/06/25 01:50:19;;;;;;;1999.90;999.90;;;16.30;99.90;;;;;;5076371;28;20824;-89
2021/06/25 01:52:50;;;;;;;1999.90;999.90;;;16.10;99.90;;;;;;5076582;28;20394;-88
2021/06/25 01:55:16;;;;;;;1999.90;999.90;;;16.10;99.90;;;;;;5076732;28;20417;-88
2021/06/25 01:57:43;;;;;;;1999.90;999.90;;;16.10;99.90;;;;;;5076736;28;20409;-88
2021/06/25 02:00:10;;;;;;;1999.90;999.90;;;16.10;99.90;;;;;;5076436;28;20435;-88
2021/06/25 02:02:37;;;;;;;1999.90;999.90;;;16.10;99.90;;;;;;5076848;28;20407;-89
2021/06/25 02:05:04;;;;;;;1999.90;999.90;;;16.00;99.90;;;;;;5076284;28;20435;-88
2021/06/25 02:07:29;;;;;;;1999.90;999.90;;;16.00;99.90;;;;;;5058211;28;20411;-89
2021/06/25 02:09:56;;;;;;;1999.90;999.90;;;16.00;99.90;;;;;;5076094;28;20788;-88
2021/06/25 02:12:23;;;;;;;1999.90;999.90;;;16.00;99.90;;;;;;5074291;28;20173;-88
2021/06/25 02:14:49;;;;;;;1999.90;999.90;;;16.00;99.90;;;;;;5076034;28;20449;-89
2021/06/25 02:17:16;;;;;;;1999.90;999.90;;;16.00;99.90;;;;;;5075970;28;20436;-89
2021/06/25 02:19:43;;;;;;;1999.90;999.90;;;16.00;99.90;;;;;;5075931;28;20429;-88
2021/06/25 02:22:08;;;;;;;1999.90;999.90;;;16.00;99.90;;;;;;5076422;28;20905;-89
2021/06/25 02:24:35;;;;;;;1999.90;999.90;;;16.10;99.90;;;;;;5074849;28;20413;-89
2021/06/25 02:27:00;;;;;;;1999.90;999.90;;;16.10;99.90;;;;;;5076266;28;20404;-89
2021/06/25 02:29:26;;;;;;;1999.90;999.90;;;16.10;99.90;;;;;;5075855;28;20796;-88
2021/06/25 02:31:52;;;;;;;1999.90;999.90;;;16.10;99.90;;;;;;5075726;28;20666;-89
2021/06/25 02:34:18;;;;;;;1999.90;999.90;;;16.00;99.90;;;;;;5076191;28;20154;-88
2021/06/25 02:36:44;;;;;;;1999.90;999.90;;;15.90;99.90;;;;;;5075535;28;20408;-88
2021/06/25 02:39:10;;;;;;;1999.90;999.90;;;15.80;99.90;;;;;;5075496;28;20428;-88
2021/06/25 02:41:35;;;;;;;1999.90;999.90;;;15.80;99.90;;;;;;5075699;28;20482;-88
2021/06/25 02:44:02;;;;;;;1999.90;999.90;;;15.80;99.90;;;;;;5075538;28;20170;-88
2021/06/25 02:46:28;;;;;;;1999.90;999.90;;;15.70;99.90;;;;;;5075701;28;20249;-88
2021/06/25 02:48:54;;;;;;;1999.90;999.90;;;15.80;99.90;;;;;;5075461;28;20506;-89
2021/06/25 02:51:19;;;;;;;1999.90;999.90;;;15.80;99.90;;;;;;5074932;28;20517;-89
2021/06/25 02:53:45;;;;;;;1999.90;999.90;;;15.70;99.90;;;;;;5075389;28;20632;-89
2021/06/25 02:56:11;;;;;;;1999.90;999.90;;;15.60;99.90;;;;;;5075325;28;20162;-89
2021/06/25 02:58:36;;;;;;;1999.90;999.90;;;15.60;99.90;;;;;;5075410;28;20162;-89
2021/06/25 03:01:02;;;;;;;1999.90;999.90;;;15.50;99.90;;;;;;5075306;28;20169;-89
2021/06/25 03:03:28;;;;;;;1999.90;999.90;;;15.60;99.90;;;;;;5075769;28;20201;-88
2021/06/25 03:05:54;;;;;;;1999.90;999.90;;;15.50;99.90;;;;;;5057232;28;20409;-89
2021/06/25 03:08:20;;;;;;;1999.90;999.90;;;15.30;99.90;;;;;;5073739;28;20180;-89
2021/06/25 03:10:49;;;;;;;1999.90;999.90;;;15.30;99.90;;;;;;5074744;28;20812;-89
2021/06/25 03:13:15;;;;;;;1999.90;999.90;;;15.20;99.90;;;;;;5075042;28;20822;-88
2021/06/25 03:15:41;;;;;;;1999.90;999.90;;;15.20;99.90;;;;;;5073786;28;20403;-88
2021/06/25 03:18:07;;;;;;;1999.90;999.90;;;15.20;99.90;;;;;;5075222;28;20409;-88
2021/06/25 03:20:33;;;;;;;1999.90;999.90;;;15.20;99.90;;;;;;5074702;28;20423;-89
2021/06/25 03:22:59;;;;;;;1999.90;999.90;;;15.20;99.90;;;;;;5074291;28;20530;-88
2021/06/25 03:25:25;;;;;;;1999.90;999.90;;;15.20;99.90;;;;;;5074188;28;20171;-89
2021/06/25 03:27:50;;;;;;;1999.90;999.90;;;15.30;99.90;;;;;;5074573;28;20818;-88
2021/06/25 03:30:17;;;;;;;1999.90;999.90;;;15.30;99.90;;;;;;5074281;28;20557;-89
2021/06/25 03:32:42;;;;;;;1999.90;999.90;;;15.30;99.90;;;;;;5056672;28;20176;-89
2021/06/25 03:35:09;;;;;;;1999.90;999.90;;;15.30;99.90;;;;;;5074779;28;20480;-89
2021/06/25 03:37:35;;;;;;;1999.90;999.90;;;15.20;99.90;;;;;;5074562;28;20429;-89
2021/06/25 03:40:06;;;;;;;1999.90;999.90;;;15.20;99.90;;;;;;5074180;28;20795;-88
2021/06/25 03:42:31;;;;;;;1999.90;999.90;;;15.10;99.90;;;;;;5057083;28;20439;-88
2021/06/25 03:44:57;;;;;;;1999.90;999.90;;;15.10;99.90;;;;;;5074249;28;20399;-88
2021/06/25 03:47:23;;;;;;;1999.90;999.90;;;15.10;99.90;;;;;;5072818;28;20187;-89
2021/06/25 03:49:48;;;;;;;1999.90;999.90;;;15.10;99.90;;;;;;5074079;28;20687;-89
2021/06/25 03:52:14;;;;;;;1999.90;999.90;;;15.10;99.90;;;;;;5074391;28;20165;-89
2021/06/25 03:54:40;;;;;;;1999.90;999.90;;;15.00;99.90;;;;;;5072954;28;20161;-89
2021/06/25 03:57:06;;;;;;;1999.90;999.90;;;15.00;99.90;;;;;;5073982;28;20164;-89
2021/06/25 03:59:32;;;;;;;1999.90;999.90;;;15.00;99.90;;;;;;5073863;28;20281;-88
2021/06/25 04:01:57;;;;;;;1999.90;999.90;;;15.00;99.90;;;;;;5072513;28;20439;-88
2021/06/25 04:04:23;;;;;;;1999.90;999.90;;;15.00;99.90;;;;;;5074103;28;20166;-88
2021/06/25 04:06:49;;;;;;;1999.90;999.90;;;15.10;99.90;;;;;;5073730;28;20242;-89
2021/06/25 04:09:15;;;;;;;1999.90;999.90;;;15.10;99.90;;;;;;5055399;28;20205;-89
2021/06/25 04:11:43;;;;;;;1999.90;999.90;;;15.10;99.90;;;;;;5072471;28;20197;-89
2021/06/25 04:14:09;;;;;;;1999.90;999.90;;;15.20;99.90;;;;;;5074007;28;20430;-89
2021/06/25 04:16:34;;;;;;;1999.90;999.90;;;15.40;99.90;;;;;;5072154;28;21001;-88
2021/06/25 04:19:03;;;;;;;1999.90;999.90;;;15.50;99.90;;;;;;5073662;28;20422;-89
2021/06/25 04:21:28;;;;;;;1999.90;999.90;;;15.60;99.90;;;;;;5074163;28;20534;-89
2021/06/25 04:23:54;;;;;;;1999.90;999.90;;;15.70;99.90;;;;;;5055720;28;20419;-89
2021/06/25 04:26:20;;;;;;;1999.90;999.90;;;15.80;99.90;;;;;;5073598;28;20165;-89
2021/06/25 04:28:46;;;;;;;1999.90;999.90;;;15.80;99.90;;;;;;5073415;28;20196;-89
2021/06/25 04:31:12;;;;;;;1999.90;999.90;;;15.90;99.90;;;;;;5073319;28;20456;-89
2021/06/25 04:33:39;;;;;;;1999.90;999.90;;;15.90;99.90;;;;;;5073593;28;20163;-88
2021/06/25 04:36:08;;;;;;;1999.90;999.90;;;15.90;99.90;;;;;;5073475;28;20421;-88
2021/06/25 04:38:34;;;;;;;1999.90;999.90;;;16.00;99.90;;;;;;5073204;28;20397;-88
2021/06/25 04:41:00;;;;;;;1999.90;999.90;;;16.10;99.90;;;;;;5073196;28;20456;-89
2021/06/25 04:43:25;;;;;;;1999.90;999.90;;;16.10;99.90;;;;;;5071896;28;20170;-89
2021/06/25 04:45:51;;;;;;;1999.90;999.90;;;16.20;99.90;;;;;;5073355;28;20402;-89
2021/06/25 04:48:17;;;;;;;1999.90;999.90;;;16.30;99.90;;;;;;5072075;28;20180;-89
2021/06/25 04:50:44;;;;;;;1999.90;999.90;;;16.30;99.90;;;;;;5073726;28;20205;-89
2021/06/25 04:53:10;;;;;;;1999.90;999.90;;;16.40;99.90;;;;;;5072244;28;20753;-89
2021/06/25 04:55:43;;;;;;;1999.90;999.90;;;16.40;99.90;;;;;;5073486;28;20489;-89
2021/06/25 04:58:18;;;;;;;1999.90;999.90;;;16.50;99.90;;;;;;5073467;28;20807;-89
2021/06/25 05:00:53;;;;;;;1999.90;999.90;;;16.50;99.90;;;;;;5055864;28;20511;-89
2021/06/25 05:03:19;;;;;;;1999.90;999.90;;;16.70;99.90;;;;;;5055030;28;20925;-89
2021/06/25 05:05:45;;;;;;;1999.90;999.90;;;16.70;99.90;;;;;;5072959;28;20401;-89
2021/06/25 05:08:12;;;;;;;1999.90;999.90;;;16.70;99.90;;;;;;5073003;28;20160;-89
2021/06/25 05:10:38;;;;;;;1999.90;999.90;;;16.80;99.90;;;;;;5072717;28;20904;-89
2021/06/25 05:13:04;;;;;;;1999.90;999.90;;;16.90;99.90;;;;;;5054944;28;20463;-89
2021/06/25 05:15:31;;;;;;;1999.90;999.90;;;17.00;99.90;;;;;;5072905;28;20427;-89
2021/06/25 05:17:57;;;;;;;1999.90;999.90;;;17.00;99.90;;;;;;5055195;28;20482;-89
2021/06/25 05:20:26;;;;;;;1999.90;999.90;;;16.90;99.90;;;;;;5072677;28;20455;-89
2021/06/25 05:22:51;;;;;;;1999.90;999.90;;;16.90;99.90;;;;;;5054830;28;20437;-89
2021/06/25 05:25:17;;;;;;;1999.90;999.90;;;17.00;99.90;;;;;;5073194;28;20402;-89
2021/06/25 05:27:43;;;;;;;1999.90;999.90;;;17.10;99.90;;;;;;5071564;28;20161;-89
2021/06/25 05:30:10;;;;;;;1999.90;999.90;;;17.20;99.90;;;;;;5072898;28;20328;-89
2021/06/25 05:32:36;;;;;;;1999.90;999.90;;;17.30;99.90;;;;;;5073128;28;20526;-90
2021/06/25 05:35:03;;;;;;;1999.90;999.90;;;17.40;99.90;;;;;;5071871;28;20497;-90
2021/06/25 05:37:29;;;;;;;1999.90;999.90;;;17.40;99.90;;;;;;5072693;28;20533;-90
2021/06/25 05:39:54;;;;;;;1999.90;999.90;;;17.40;99.90;;;;;;5072659;28;20899;-90
2021/06/25 05:42:20;;;;;;;1999.90;999.90;;;17.40;99.90;;;;;;5071408;28;20928;-90
2021/06/25 05:44:46;;;;;;;1999.90;999.90;;;17.50;99.90;;;;;;5071781;28;20176;-90
2021/06/25 05:47:12;;;;;;;1999.90;999.90;;;17.50;99.90;;;;;;5074122;28;20638;-90
2021/06/25 05:49:37;;;;;;;1999.90;999.90;;;17.60;99.90;;;;;;5058438;28;20196;-89
2021/06/25 05:52:03;;;;;;;1999.90;999.90;;;17.60;99.90;;;;;;5076318;28;20166;-90
2021/06/25 05:54:29;;;;;;;1999.90;999.90;;;17.60;99.90;;;;;;5076280;28;20217;-89
2021/06/25 05:56:58;;;;;;;1999.90;999.90;;;17.70;99.90;;;;;;5076180;28;20400;-89
2021/06/25 05:59:26;;;;;;;1999.90;999.90;;;17.70;99.90;;;;;;5058258;28;20563;-89
2021/06/25 06:01:54;;;;;;;1999.90;999.90;;;17.70;99.90;;;;;;5058708;28;20467;-89
2021/06/25 06:04:20;;;;;;;1999.90;999.90;;;17.80;99.90;;;;;;5076114;28;20418;-89
2021/06/25 06:06:46;;;;;;;1999.90;999.90;;;17.80;99.90;;;;;;5076148;28;20532;-89
2021/06/25 06:09:12;;;;;;;1999.90;999.90;;;17.80;99.90;;;;;;5075829;28;20566;-89
2021/06/25 06:11:38;;;;;;;1999.90;999.90;;;17.90;99.90;;;;;;5076089;28;20402;-86
2021/06/25 06:14:03;;;;;;;1999.90;999.90;;;18.00;99.90;;;;;;5075956;28;20418;-86
2021/06/25 06:16:29;;;;;;;1999.90;999.90;;;18.10;99.90;;;;;;5074679;28;20305;-86
2021/06/25 06:18:55;;;;;;;1999.90;999.90;;;18.10;99.90;;;;;;5075862;28;20241;-86
2021/06/25 06:21:22;;;;;;;1999.90;999.90;;;18.10;99.90;;;;;;5074970;28;20179;-86
2021/06/25 06:34:40;;;;;;;1999.90;999.90;;;18.10;99.90;;;;;;5077422;28;20398;-78
2021/06/25 06:37:06;;;;;;;1999.90;999.90;;;18.10;99.90;;;;;;5077870;28;20913;-77
2021/06/25 06:39:43;;;;;;;1999.90;999.90;;;18.20;99.90;;;;;;5077496;28;20418;-78
2021/06/25 06:42:09;;;;;;;1999.90;999.90;;;18.20;99.90;;;;;;5075705;28;20658;-79
2021/06/25 06:44:35;;;;;;;1999.90;999.90;;;18.30;99.90;;;;;;5078367;28;20481;-79
2021/06/25 06:47:11;;;;;;;1999.90;999.90;;;18.30;99.90;;;;;;5077565;28;20433;-79
2021/06/25 06:49:42;;;;;;;1999.90;999.90;;;18.30;99.90;;;;;;5078298;28;20682;-79
2021/06/25 06:52:32;;;;;;;1999.90;999.90;;;18.30;99.90;;;;;;5077866;28;20402;-79
2021/06/25 06:54:57;;;;;;;1999.90;999.90;;;18.30;99.90;;;;;;5060304;28;20398;-80
2021/06/25 06:57:23;;;;;;;1999.90;999.90;;;18.30;99.90;;;;;;5044296;28;20418;-79
2021/06/25 06:59:49;;;;;;;1999.90;999.90;;;18.40;99.90;;;;;;5076535;28;20191;-80
2021/06/25 07:02:15;;;;;;;1999.90;999.90;;;18.40;99.90;;;;;;5077598;28;20168;-79
2021/06/25 07:05:04;;;;;;;1999.90;999.90;;;18.50;99.90;;;;;;5078017;28;20171;-80
2021/06/25 07:07:29;;;;;;;1999.90;999.90;;;18.60;99.90;;;;;;5077632;28;20251;-79
2021/06/25 07:09:58;;;;;;;1999.90;999.90;;;18.60;99.90;;;;;;5077417;28;20470;-80
2021/06/25 07:12:24;;;;;;;1999.90;999.90;;;18.70;99.90;;;;;;5077371;28;20164;-78
2021/06/25 07:14:50;;;;;;;1999.90;999.90;;;18.60;99.90;;;;;;5077740;28;20403;-78
2021/06/25 07:17:16;;;;;;;1999.90;999.90;;;18.70;99.90;;;;;;5077218;28;20470;-77
2021/06/25 07:19:41;;;;;;;1999.90;999.90;;;18.80;99.90;;;;;;5109861;22;20215;-77
2021/06/25 07:22:07;;;;;;;1999.90;999.90;;;18.80;99.90;;;;;;5077477;28;20159;-77
2021/06/25 07:24:33;;;;;;;1999.90;999.90;;;18.80;99.90;;;;;;5077579;28;20165;-78
2021/06/25 07:26:59;;;;;;;1999.90;999.90;;;18.80;99.90;;;;;;5076690;28;20164;-79
2021/06/25 07:29:25;;;;;;;1999.90;999.90;;;18.80;99.90;;;;;;5077418;28;20196;-79
2021/06/25 07:31:51;;;;;;;1999.90;999.90;;;18.80;99.90;;;;;;5077103;28;20394;-77
2021/06/25 07:34:26;;;;;;;1999.90;999.90;;;18.80;99.90;;;;;;5077293;28;20403;-77
2021/06/25 07:36:52;;;;;;;1999.90;999.90;;;18.80;99.90;;;;;;5077206;28;20174;-77
2021/06/25 07:39:18;;;;;;;1999.90;999.90;;;18.90;99.90;;;;;;5076587;28;20950;-77
2021/06/25 07:41:44;;;;;;;1999.90;999.90;;;19.00;99.90;;;;;;5075839;28;20410;-78
2021/06/25 07:44:10;;;;;;;1999.90;999.90;;;19.00;99.90;;;;;;5076745;28;20433;-78
2021/06/25 07:46:38;;;;;;;1999.90;999.90;;;19.10;99.90;;;;;;5077035;28;20398;-78
2021/06/25 07:49:04;;;;;;;1999.90;999.90;;;19.20;99.90;;;;;;5076288;28;20473;-78
2021/06/25 07:51:35;;;;;;;1999.90;999.90;;;19.30;99.90;;;;;;5075701;28;20971;-79
2021/06/25 07:54:06;;;;;;;1999.90;999.90;;;19.30;99.90;;;;;;5076523;28;20199;-77
2021/06/25 07:56:32;;;;;;;1999.90;999.90;;;19.40;99.90;;;;;;5077350;28;20382;-79
2021/06/25 07:59:00;;;;;;;1999.90;999.90;;;19.40;99.90;;;;;;5075147;28;20590;-79
2021/06/25 08:01:29;;;;;;;1999.90;999.90;;;19.50;99.90;;;;;;5075196;28;20192;-78
2021/06/25 08:03:54;;;;;;;1999.90;999.90;;;19.50;99.90;;;;;;5076774;28;20485;-79
2021/06/25 08:06:20;;;;;;;1999.90;999.90;;;19.50;99.90;;;;;;5076897;28;20492;-78
2021/06/25 08:08:46;;;;;;;1999.90;999.90;;;19.50;99.90;;;;;;5075901;28;20184;-79
2021/06/25 08:11:11;;;;;;;1999.90;999.90;;;19.60;99.90;;;;;;5075962;28;20260;-79
2021/06/25 08:13:46;;;;;;;1999.90;999.90;;;19.70;99.90;;;;;;5075437;28;20640;-79
2021/06/25 08:16:12;;;;;;;1999.90;999.90;;;19.70;99.90;;;;;;5075141;28;20156;-78
2021/06/25 08:18:38;;;;;;;1999.90;999.90;;;19.60;99.90;;;;;;5075753;28;20445;-77
2021/06/25 08:21:05;;;;;;;1999.90;999.90;;;19.70;99.90;;;;;;5076657;28;20905;-78
2021/06/25 08:23:33;;;;;;;1999.90;999.90;;;19.80;99.90;;;;;;5076691;28;20719;-78
2021/06/25 08:25:58;;;;;;;1999.90;999.90;;;19.80;99.90;;;;;;5076367;28;20761;-78
2021/06/25 08:30:52;;;;;;;1999.90;999.90;;;19.90;99.90;;;;;;5273320;22;20227;-77
2021/06/25 08:33:18;;;;;;;1999.90;999.90;;;19.90;99.90;;;;;;5075720;28;20750;-79
2021/06/25 08:35:44;;;;;;;1999.90;999.90;;;20.00;99.90;;;;;;5076960;28;20500;-78
2021/06/25 08:38:10;;;;;;;1999.90;999.90;;;20.10;96.40;;;;;;5074989;28;20167;-78
2021/06/25 08:40:36;;;;;;;1999.90;999.90;;;20.10;79.30;;;;;;5076425;28;20188;-78
2021/06/25 08:43:02;;;;;;;1999.90;999.90;;;20.00;79.10;;;;;;5077367;28;20904;-79
2021/06/25 08:45:31;;;;;;;1999.90;999.90;;;20.10;78.30;;;;;;5076969;28;20470;-79
2021/06/25 08:47:58;;;;;;;1999.90;999.90;;;20.10;63.30;;;;;;5058642;28;20168;-78
2021/06/25 08:50:23;;;;;;;1999.90;999.90;;;20.10;46.40;;;;;;5057870;28;20450;-79
2021/06/25 08:52:51;;;;;;;1999.90;999.90;;;20.20;29.10;;;;;;5075406;28;20452;-78
2021/06/25 08:55:19;;;;;;;1999.90;999.90;;;20.20;32.90;;;;;;5057251;28;20410;-78
2021/06/25 08:57:57;;;;;;;1999.90;999.90;;;20.30;46.80;;;;;;5075571;28;20921;-79
2021/06/25 09:00:55;;;;;;;1999.90;999.90;;;20.50;42.40;;;;;;5073864;28;20431;-78
2021/06/25 09:03:23;;;;;;;1999.90;999.90;;;20.60;29.00;;;;;;5075722;28;20497;-79
2021/06/25 09:05:49;;;;;;;1999.90;999.90;;;20.70;28.30;;;;;;5076178;28;20481;-78
2021/06/25 09:08:30;;;;;;;1999.90;999.90;;;20.80;35.40;;;;;;5076261;28;20416;-78
2021/06/25 09:11:01;;;;;;;1999.90;999.90;;;20.80;43.10;;;;;;5074291;28;20442;-78
2021/06/25 09:13:38;;;;;;;1999.90;999.90;;;21.00;45.80;;;;;;5057517;28;21017;-80
2021/06/25 09:16:27;;;;;;;1999.90;999.90;;;21.20;46.60;;;;;;5075370;28;20380;-78
2021/06/25 09:19:02;;;;;;;1999.90;999.90;;;21.30;57.20;;;;;;5075812;28;20453;-78
2021/06/25 09:21:30;;;;;;;1999.90;999.90;;;21.50;50.00;;;;;;5075492;28;20374;-79
2021/06/25 09:23:56;;;;;;;1999.90;999.90;;;21.70;46.40;;;;;;5079640;28;20400;-79
2021/06/25 09:26:29;;;;;;;1999.90;999.90;;;21.80;30.90;;;;;;5079389;28;20434;-78
2021/06/25 09:29:10;;;;;;;1999.90;999.90;;;22.00;42.50;;;;;;5061030;28;20423;-79
2021/06/25 09:31:36;;;;;;;1999.90;999.90;;;22.20;38.10;;;;;;5078337;28;20941;-78
2021/06/25 09:34:03;;;;;;;1999.90;999.90;;;22.40;24.30;;;;;;5078188;28;20386;-79
2021/06/25 09:36:31;;;;;;;1999.90;999.90;;;22.50;19.10;;;;;;5076331;28;20180;-78
2021/06/25 09:39:02;;;;;;;1999.90;999.90;;;22.70;21.00;;;;;;5077866;28;20414;-78
2021/06/25 09:41:29;;;;;;;1999.90;999.90;;;22.80;17.80;;;;;;5077646;28;20908;-78
2021/06/25 09:44:03;;;;;;;1999.90;999.90;;;22.80;12.30;;;;;;5078432;28;20391;-78
2021/06/25 09:46:38;;;;;;;1999.90;999.90;;;22.80;14.40;;;;;;5080326;28;20900;-79
2021/06/25 09:49:08;;;;;;;1999.90;999.90;;;23.00;9.50;;;;;;5079159;28;20428;-78
2021/06/25 09:51:36;;;;;;;1999.90;999.90;;;23.30;10.80;;;;;;5078513;28;20379;-78
2021/06/25 09:54:10;;;;;;;1999.90;999.90;;;23.60;11.70;;;;;;5078300;28;20428;-78
2021/06/25 10:02:18;;;;;;;1999.90;999.90;;;24.10;8.70;;;;;;5077674;28;20385;-78
2021/06/25 10:04:45;;;;;;;1999.90;999.90;;;24.20;4.90;;;;;;5076089;28;20410;-77
2021/06/25 10:07:16;;;;;;;1999.90;999.90;;;24.30;7.00;;;;;;5077018;28;20452;-78
2021/06/25 10:09:43;;;;;;;1999.90;999.90;;;24.20;14.30;;;;;;5058700;28;20457;-79
2021/06/25 10:12:10;;;;;;;1999.90;999.90;;;24.40;13.10;;;;;;5059320;28;20407;-78
2021/06/25 10:14:37;;;;;;;1999.90;999.90;;;24.80;12.50;;;;;;5077518;28;20803;-78
2021/06/25 10:17:08;;;;;;;1999.90;999.90;;;24.80;5.70;;;;;;5078031;28;20399;-79
2021/06/25 10:19:57;;;;;;;1999.90;999.90;;;24.60;2.60;;;;;;5059783;28;20434;-77
2021/06/25 10:22:26;;;;;;;1999.90;999.90;;;24.60;2.60;;;;;;5078349;28;20750;-79
2021/06/25 10:24:53;;;;;;;1999.90;999.90;;;24.60;8.10;;;;;;5060410;28;20411;-79
2021/06/25 10:27:21;;;;;;;1999.90;999.90;;;24.60;6.10;;;;;;5061043;28;20417;-80
2021/06/25 10:29:48;;;;;;;1999.90;999.90;;;24.70;3.30;;;;;;5079195;28;20536;-80
2021/06/25 10:32:17;;;;;;;1999.90;999.90;;;24.70;1.80;;;;;;5079216;28;20402;-79
2021/06/25 10:34:44;;;;;;;1999.90;999.90;;;24.90;4.30;;;;;;5079637;28;20402;-80
2021/06/25 10:37:19;;;;;;;1999.90;999.90;;;25.10;1.00;;;;;;5079265;28;20402;-78
2021/06/25 10:39:45;;;;;;;1999.90;999.90;;;25.00;1.00;;;;;;5078756;28;20413;-79
2021/06/25 10:42:11;;;;;;;1999.90;999.90;;;25.20;1.00;;;;;;5079260;28;20425;-79
2021/06/25 10:44:51;;;;;;;1999.90;999.90;;;25.30;1.00;;;;;;5143219;22;20194;-79
2021/06/25 10:47:27;;;;;;;1999.90;999.90;;;25.60;1.00;;;;;;5057194;28;20411;-78
2021/06/25 10:50:19;;;;;;;1999.90;999.90;;;25.70;1.00;;;;;;5056324;28;20783;-79
2021/06/25 10:53:16;;;;;;;1999.90;999.90;;;25.80;1.00;;;;;;5051291;28;20479;-78
2021/06/25 10:55:57;;;;;;;1999.90;999.90;;;25.80;1.10;;;;;;5052686;28;20466;-78
2021/06/25 10:58:25;;;;;;;1999.90;999.90;;;26.20;1.00;;;;;;5056655;28;20436;-78
2021/06/25 11:00:56;;;;;;;1999.90;999.90;;;26.50;1.00;;;;;;5056645;28;20772;-78
2021/06/25 11:03:42;;;;;;;1999.90;999.90;;;26.90;1.00;;;;;;5056805;28;20418;-78
2021/06/25 11:06:29;;;;;;;1999.90;999.90;;;27.20;1.00;;;;;;5056374;28;20410;-78
2021/06/25 11:09:05;;;;;;;1999.90;999.90;;;27.30;1.00;;;;;;5055951;28;20430;-77
2021/06/25 11:11:31;;;;;;;1999.90;999.90;;;27.20;1.00;;;;;;5055889;28;20449;-78
2021/06/25 11:13:57;;;;;;;1999.90;999.90;;;26.90;1.00;;;;;;5056480;28;20975;-78
2021/06/25 11:16:23;;;;;;;1999.90;999.90;;;26.70;1.00;;;;;;5055937;28;20791;-78
2021/06/25 11:18:49;;;;;;;1999.90;999.90;;;26.60;1.00;;;;;;5056476;28;20509;-79
2021/06/25 11:21:15;;;;;;;1999.90;999.90;;;26.50;1.00;;;;;;5038049;28;20821;-79
2021/06/25 11:23:46;;;;;;;1999.90;999.90;;;26.70;1.00;;;;;;5055697;28;20245;-79
2021/06/25 11:26:17;;;;;;;1999.90;999.90;;;27.00;1.00;;;;;;5055412;28;20410;-78
2021/06/25 11:28:45;;;;;;;1999.90;999.90;;;27.20;1.00;;;;;;5055264;28;20426;-78
2021/06/25 11:31:19;;;;;;;1999.90;999.90;;;27.60;1.00;;;;;;5055192;28;20880;-78
2021/06/25 11:33:52;;;;;;;1999.90;999.90;;;27.40;1.00;;;;;;5037561;28;20469;-79
2021/06/25 11:36:19;;;;;;;1999.90;999.90;;;27.70;1.00;;;;;;5055214;28;20403;-79
2021/06/25 11:39:09;;;;;;;1999.90;999.90;;;27.80;1.00;;;;;;5055532;28;20423;-78
2021/06/25 11:41:46;;;;;;;1999.90;999.90;;;27.80;1.00;;;;;;5055900;28;20383;-78
2021/06/25 11:44:17;;;;;;;1999.90;999.90;;;27.70;1.00;;;;;;5054535;28;20395;-78
2021/06/25 11:47:00;;;;;;;1999.90;999.90;;;27.50;1.00;;;;;;5037108;28;20431;-78
2021/06/25 11:49:39;;;;;;;1999.90;999.90;;;27.40;1.00;;;;;;5037998;28;20442;-78
2021/06/25 11:52:11;;;;;;;1999.90;999.90;;;27.40;1.00;;;;;;5055550;28;20756;-79
2021/06/25 11:54:38;;;;;;;1999.90;999.90;;;27.30;1.00;;;;;;5056311;28;20384;-79
2021/06/25 11:57:05;;;;;;;1999.90;999.90;;;27.10;1.00;;;;;;5055293;28;20403;-80
2021/06/25 11:59:31;;;;;;;1999.90;999.90;;;27.20;1.00;;;;;;5054967;28;20783;-78
2021/06/25 12:01:59;;;;;;;1999.90;999.90;;;27.30;1.00;;;;;;5054999;28;20405;-79
2021/06/25 12:04:50;;;;;;;1999.90;999.90;;;27.40;1.00;;;;;;5055411;28;20403;-79
2021/06/25 12:07:19;;;;;;;1999.90;999.90;;;27.30;1.00;;;;;;5055840;28;20394;-79
2021/06/25 12:09:52;;;;;;;1999.90;999.90;;;26.90;1.00;;;;;;5054436;28;20447;-79
2021/06/25 12:12:25;;;;;;;1999.90;999.90;;;26.70;1.00;;;;;;5055280;28;20921;-79
2021/06/25 12:14:59;;;;;;;1999.90;999.90;;;26.70;1.00;;;;;;5057456;28;20961;-79
2021/06/25 12:17:41;;;;;;;1999.90;999.90;;;27.00;1.00;;;;;;5056881;28;20379;-79
2021/06/25 12:20:10;;;;;;;1999.90;999.90;;;27.00;1.00;;;;;;5056308;28;20783;-79
2021/06/25 12:22:56;;;;;;;1999.90;999.90;;;27.20;1.00;;;;;;5056375;28;20431;-79
2021/06/25 12:25:43;;;;;;;1999.90;999.90;;;27.40;1.00;;;;;;5036893;28;20938;-79
2021/06/25 12:28:18;;;;;;;1999.90;999.90;;;27.50;1.00;;;;;;5054865;28;20476;-79
2021/06/25 12:30:47;;;;;;;1999.90;999.90;;;27.60;1.00;;;;;;5055100;28;20500;-80
2021/06/25 12:33:14;;;;;;;1999.90;999.90;;;27.50;1.00;;;;;;5036125;28;20927;-79